createdAt,value
2022-11-02T00:02:13.762Z,100937.38
2022-11-02T00:04:40.231Z,100949.84
2022-11-02T00:07:06.770Z,100947.91
2022-11-02T00:09:33.201Z,100937.25
2022-11-02T00:11:59.724Z,100938.22
2022-11-02T00:14:26.169Z,100933.69
2022-11-02T00:16:52.601Z,100930.97
2022-11-02T00:19:19.118Z,100939.84
2022-11-02T00:21:45.557Z,100941.69
2022-11-02T00:24:12.087Z,100939.13
2022-11-02T00:26:38.584Z,100941.00
2022-11-02T00:29:05.183Z,100933.00
2022-11-02T00:31:31.694Z,100940.78
2022-11-02T00:33:58.559Z,100939.97
2022-11-02T00:36:25.163Z,100943.50
2022-11-02T00:38:51.633Z,100939.13
2022-11-02T00:41:19.083Z,100930.25
2022-11-02T00:43:45.764Z,100941.84
2022-11-02T00:46:12.705Z,100940.94
2022-11-02T00:48:39.191Z,100931.22
2022-11-02T00:51:05.882Z,100935.69
2022-11-02T00:53:32.360Z,100939.34
2022-11-02T00:55:59.163Z,100933.16
2022-11-02T00:58:25.880Z,100934.97
2022-11-02T01:00:52.631Z,100924.34
2022-11-02T01:03:19.102Z,100942.06
2022-11-02T01:05:46.344Z,100934.97
2022-11-02T01:08:12.799Z,100920.69
2022-11-02T01:10:42.733Z,100935.75
2022-11-02T01:13:12.165Z,100936.63
2022-11-02T01:15:39.596Z,100927.88
2022-11-02T01:18:06.480Z,100941.09
2022-11-02T01:20:33.192Z,100937.50
2022-11-02T01:22:59.673Z,100941.00
2022-11-02T01:25:26.273Z,100930.34
2022-11-02T01:27:52.771Z,100928.53
2022-11-02T01:30:19.267Z,100933.75
2022-11-02T01:32:45.768Z,100937.41
2022-11-02T01:35:12.265Z,100934.72
2022-11-02T01:37:38.744Z,100946.25
2022-11-02T01:40:05.538Z,100953.31
2022-11-02T01:42:32.145Z,100944.50
2022-11-02T01:44:58.641Z,100943.75
2022-11-02T01:47:26.483Z,100954.28
2022-11-02T01:50:05.004Z,100948.91
2022-11-02T01:52:33.148Z,100952.44
2022-11-02T01:55:01.833Z,100943.59
2022-11-02T01:57:29.000Z,100963.00
2022-11-02T02:00:03.964Z,100956.78
2022-11-02T02:02:43.308Z,100957.72
2022-11-02T02:05:10.355Z,100957.69
2022-11-02T02:07:37.971Z,100959.44
2022-11-02T02:10:05.129Z,100965.66
2022-11-02T02:12:33.545Z,100963.75
2022-11-02T02:15:00.135Z,100957.69
2022-11-02T02:17:28.950Z,100965.75
2022-11-02T02:20:26.635Z,100957.72
2022-11-02T02:22:53.337Z,100955.97
2022-11-02T02:29:20.556Z,100950.59
2022-11-02T02:32:06.693Z,100955.97
2022-11-02T02:34:41.636Z,100948.88
2022-11-02T02:37:10.194Z,100953.31
2022-11-02T02:39:36.988Z,100947.19
2022-11-02T02:42:06.636Z,100943.88
2022-11-02T02:44:34.189Z,100935.06
2022-11-02T02:47:02.391Z,100937.69
2022-11-02T02:49:34.404Z,100950.94
2022-11-02T02:52:01.472Z,100947.44
2022-11-02T02:54:46.672Z,100955.31
2022-11-02T02:57:13.882Z,100945.50
2022-11-02T02:59:44.304Z,100947.31
2022-11-02T03:02:16.481Z,100943.72
2022-11-02T03:04:43.153Z,100955.16
2022-11-02T03:07:09.949Z,100957.03
2022-11-02T03:09:40.800Z,100963.94
2022-11-02T03:12:18.124Z,100963.19
2022-11-02T03:14:44.621Z,100972.72
2022-11-02T03:17:15.295Z,100972.75
2022-11-02T03:19:51.466Z,100976.31
2022-11-02T03:22:23.203Z,100973.50
2022-11-02T03:24:52.798Z,100969.09
2022-11-02T03:27:25.174Z,100983.25
2022-11-02T03:30:11.197Z,100986.78
2022-11-02T03:32:39.863Z,100992.22
2022-11-02T03:35:10.372Z,100984.09
2022-11-02T03:37:41.281Z,100990.22
2022-11-02T03:40:11.753Z,101003.41
2022-11-02T03:42:39.946Z,100999.97
2022-11-02T03:45:12.851Z,101008.81
2022-11-02T03:47:39.688Z,101002.66
2022-11-02T03:50:10.039Z,101001.44
2022-11-02T03:52:38.116Z,101010.97
2022-11-02T03:55:06.118Z,101016.25
2022-11-02T03:57:35.258Z,101023.72
2022-11-02T04:00:06.196Z,101019.38
2022-11-02T04:02:41.379Z,101031.72
2022-11-02T04:05:08.713Z,101029.09
2022-11-02T04:07:58.463Z,101024.75
2022-11-02T04:10:27.445Z,101030.94
2022-11-02T04:13:12.776Z,101032.56
2022-11-02T04:15:39.260Z,101039.53
2022-11-02T04:18:24.445Z,101032.38
2022-11-02T04:20:51.150Z,101023.53
2022-11-02T04:23:36.619Z,101052.63
2022-11-02T04:26:05.011Z,101048.13
2022-11-02T04:28:38.723Z,101038.44
2022-11-02T04:31:05.827Z,101033.00
2022-11-02T04:33:37.335Z,101056.13
2022-11-02T04:36:07.317Z,101049.75
2022-11-02T04:38:40.763Z,101075.63
2022-11-02T04:41:37.170Z,101069.41
2022-11-02T04:44:07.259Z,101070.19
2022-11-02T04:46:35.226Z,101081.75
2022-11-02T04:51:49.851Z,101081.72
2022-11-02T04:54:18.742Z,101085.38
2022-11-02T04:56:47.849Z,101084.25
2022-11-02T04:59:15.902Z,101094.84
2022-11-02T05:01:42.867Z,101078.94
2022-11-02T05:04:09.682Z,101084.13
2022-11-02T05:06:36.908Z,101089.53
2022-11-02T05:09:04.146Z,101098.41
2022-11-02T05:11:32.546Z,101097.53
2022-11-02T05:13:59.694Z,101091.44
2022-11-02T05:16:29.999Z,101091.34
2022-11-02T05:18:57.341Z,101097.69
2022-11-02T05:21:27.821Z,101104.72
2022-11-02T05:23:55.307Z,101097.53
2022-11-02T05:26:22.504Z,101098.28
2022-11-02T05:28:51.414Z,101092.09
2022-11-02T05:31:17.949Z,101085.84
2022-11-02T05:33:44.587Z,101108.88
2022-11-02T05:36:16.345Z,101115.09
2022-11-02T05:38:46.215Z,101112.31
2022-11-02T05:41:21.812Z,101118.50
2022-11-02T05:43:49.772Z,101112.22
2022-11-02T05:46:21.157Z,101124.38
2022-11-02T05:48:47.612Z,101120.19
2022-11-02T05:51:14.436Z,101124.88
2022-11-02T05:53:40.929Z,101111.41
2022-11-02T05:56:07.705Z,101132.50
2022-11-02T05:58:34.336Z,101137.22
2022-11-02T06:01:01.361Z,101128.16
2022-11-02T06:03:27.964Z,101135.09
2022-11-02T06:05:58.323Z,101139.47
2022-11-02T06:08:24.943Z,101150.06
2022-11-02T06:10:51.491Z,101142.66
2022-11-02T06:13:24.838Z,101165.00
2022-11-02T06:15:51.915Z,101162.25
2022-11-02T06:18:18.472Z,101175.59
2022-11-02T06:20:47.888Z,101176.47
2022-11-02T06:23:20.125Z,101180.03
2022-11-02T06:25:50.465Z,101188.28
2022-11-02T06:28:46.274Z,101189.28
2022-11-02T06:31:17.359Z,101186.53
2022-11-02T06:33:45.325Z,101193.47
2022-11-02T06:36:11.945Z,101186.25
2022-11-02T06:38:38.758Z,101206.22
2022-11-02T06:41:06.833Z,101210.41
2022-11-02T06:43:38.237Z,101186.34
2022-11-02T06:46:05.119Z,101221.25
2022-11-02T06:48:35.366Z,101224.81
2022-11-02T06:51:03.042Z,101229.78
2022-11-02T06:53:29.641Z,101233.59
2022-11-02T06:55:56.922Z,101235.44
2022-11-02T06:58:24.568Z,101242.38
2022-11-02T07:00:51.611Z,101251.28
2022-11-02T07:03:18.199Z,101238.59
2022-11-02T07:05:49.635Z,101257.22
2022-11-02T07:08:16.129Z,101262.66
2022-11-02T07:10:42.681Z,101284.34
2022-11-02T07:13:09.287Z,101283.09
2022-11-02T07:15:35.917Z,101298.19
2022-11-02T07:18:09.122Z,101294.44
2022-11-02T07:20:35.752Z,101303.81
2022-11-02T07:23:02.641Z,101317.81
2022-11-02T07:25:32.823Z,101313.31
2022-11-02T07:28:00.038Z,101323.03
2022-11-02T07:30:27.559Z,101319.56
2022-11-02T07:32:54.154Z,101329.31
2022-11-02T07:35:20.711Z,101338.97
2022-11-02T07:38:01.842Z,101350.19
2022-11-02T07:40:29.635Z,101351.38
2022-11-02T07:42:56.706Z,101350.88
2022-11-02T07:45:34.536Z,101363.16
2022-11-02T07:48:04.265Z,101363.31
2022-11-02T07:50:30.868Z,101353.75
2022-11-02T07:52:57.950Z,101363.53
2022-11-02T07:55:26.088Z,101383.16
2022-11-02T07:57:53.548Z,101376.38
2022-11-02T08:00:20.103Z,101373.41
2022-11-02T08:02:47.136Z,101369.78
2022-11-02T08:05:13.780Z,101377.13
2022-11-02T08:07:40.299Z,101386.94
2022-11-02T08:10:07.294Z,101374.47
2022-11-02T08:12:33.699Z,101383.47
2022-11-02T08:15:07.362Z,101387.97
2022-11-02T08:17:34.350Z,101399.94
2022-11-02T08:20:00.921Z,101390.66
2022-11-02T08:22:27.431Z,101392.41
2022-11-02T08:24:53.912Z,101392.41
2022-11-02T08:27:20.487Z,101399.44
2022-11-02T08:29:46.971Z,101402.91
2022-11-02T08:32:13.464Z,101408.81
2022-11-02T08:34:39.971Z,101409.03
2022-11-02T08:37:07.208Z,101411.94
2022-11-02T08:39:33.707Z,101412.97
2022-11-02T08:42:00.195Z,101416.69
2022-11-02T08:44:26.636Z,101426.59
2022-11-02T08:49:21.172Z,101423.59
2022-11-02T08:51:47.859Z,101426.16
2022-11-02T08:54:14.353Z,101427.44
2022-11-02T08:56:40.945Z,101424.97
2022-11-02T08:59:07.572Z,101413.47
2022-11-02T09:01:34.044Z,101440.16
2022-11-02T09:04:00.577Z,101441.47
2022-11-02T09:06:27.030Z,101418.50
2022-11-02T09:08:56.332Z,101444.47
2022-11-02T09:11:24.574Z,101443.94
2022-11-02T09:13:56.476Z,101451.00
2022-11-02T09:16:23.803Z,101445.28
2022-11-02T09:18:50.512Z,101440.03
2022-11-02T09:21:16.972Z,101454.00
2022-11-02T09:23:43.972Z,101445.84
2022-11-02T09:26:10.718Z,101453.88
2022-11-02T09:28:37.365Z,101435.66
2022-11-02T09:31:07.298Z,101455.81
2022-11-02T09:33:37.308Z,101451.50
2022-11-02T09:36:04.505Z,101478.47
2022-11-02T09:38:31.062Z,101467.53
2022-11-02T09:41:16.175Z,101448.72
2022-11-02T09:43:48.708Z,101453.31
2022-11-02T09:46:25.641Z,101459.66
2022-11-02T09:49:18.545Z,101464.81
2022-11-02T09:51:46.643Z,101461.31
2022-11-02T09:54:19.199Z,101458.88
2022-11-02T09:56:46.053Z,101464.63
2022-11-02T09:59:15.720Z,101463.59
2022-11-02T10:01:45.295Z,101466.00
2022-11-02T10:04:21.057Z,101471.69
2022-11-02T10:06:51.822Z,101460.19
2022-11-02T10:09:20.899Z,101463.88
2022-11-02T10:11:56.564Z,101486.22
2022-11-02T10:14:22.986Z,101473.66
2022-11-02T10:16:52.959Z,101494.34
2022-11-02T10:19:20.652Z,101494.41
2022-11-02T10:21:48.555Z,101489.34
2022-11-02T10:24:25.902Z,101493.53
2022-11-02T10:26:59.310Z,101495.66
2022-11-02T10:29:46.223Z,101498.78
2022-11-02T10:32:13.103Z,101489.38
2022-11-02T10:34:39.885Z,101493.34
2022-11-02T10:37:06.300Z,101501.50
2022-11-02T10:39:32.728Z,101490.75
2022-11-02T10:41:59.208Z,101487.09
2022-11-02T10:44:32.705Z,101485.41
2022-11-02T10:47:03.086Z,101494.75
2022-11-02T10:49:41.798Z,101486.94
2022-11-02T10:52:10.415Z,101498.41
2022-11-02T10:54:36.883Z,101503.56
2022-11-02T10:57:08.571Z,101498.97
2022-11-02T10:59:35.430Z,101487.44
2022-11-02T11:02:03.225Z,101486.13
2022-11-02T11:04:30.853Z,101487.50
2022-11-02T11:06:58.478Z,101496.13
2022-11-02T11:09:25.872Z,101499.63
2022-11-02T11:11:53.281Z,101513.78
2022-11-02T11:20:04.282Z,101500.53
2022-11-02T11:22:37.485Z,101497.06
2022-11-02T11:25:13.333Z,101498.78
2022-11-02T11:27:46.889Z,101490.03
2022-11-02T11:30:46.191Z,101508.94
2022-11-02T11:33:14.488Z,101515.06
2022-11-02T11:35:41.075Z,101521.94
2022-11-02T11:38:09.126Z,101499.22
2022-11-02T11:40:36.421Z,101505.09
2022-11-02T11:43:02.942Z,101512.13
2022-11-02T11:45:29.754Z,101509.56
2022-11-02T11:48:06.656Z,101499.75
2022-11-02T11:50:33.494Z,101521.56
2022-11-02T11:53:15.510Z,101513.69
2022-11-02T11:55:49.014Z,101514.88
2022-11-02T11:58:23.054Z,101510.75
2022-11-02T12:01:10.350Z,101514.25
2022-11-02T12:03:51.403Z,101498.03
2022-11-02T12:06:20.963Z,101502.63
2022-11-02T12:08:53.607Z,101510.91
2022-11-02T12:11:26.044Z,101498.38
2022-11-02T12:13:55.807Z,101493.88
2022-11-02T12:16:26.041Z,101488.00
2022-11-02T12:19:11.567Z,101488.69
2022-11-02T12:21:38.099Z,101470.78
2022-11-02T12:24:04.532Z,101499.28
2022-11-02T12:26:50.106Z,101485.56
2022-11-02T12:29:25.361Z,101491.19
2022-11-02T12:31:54.554Z,101495.63
2022-11-02T12:34:27.775Z,101491.22
2022-11-02T12:37:31.296Z,101489.44
2022-11-02T12:39:49.585Z,101487.72
2022-11-02T12:42:32.444Z,101489.66
2022-11-02T12:45:05.328Z,101484.34
2022-11-02T12:47:31.830Z,101468.16
2022-11-02T12:50:08.643Z,101480.66
2022-11-02T12:52:53.342Z,101471.19
2022-11-02T12:55:24.662Z,101472.94
2022-11-02T12:57:59.666Z,101490.91
2022-11-02T13:00:26.077Z,101480.81
2022-11-02T13:02:52.514Z,101490.69
2022-11-02T13:05:21.240Z,101488.16
2022-11-02T13:07:49.046Z,101477.94
2022-11-02T13:10:25.954Z,101474.13
2022-11-02T13:12:53.702Z,101484.25
2022-11-02T13:15:21.085Z,101471.94
2022-11-02T13:17:56.213Z,101470.31
2022-11-02T13:20:23.006Z,101460.44
2022-11-02T13:22:52.502Z,101466.63
2022-11-02T13:25:28.579Z,101458.69
2022-11-02T13:28:00.061Z,101454.38
2022-11-02T13:30:29.378Z,101454.44
2022-11-02T13:33:03.897Z,101452.75
2022-11-02T13:35:34.894Z,101459.81
2022-11-02T13:38:31.955Z,101453.50
2022-11-02T13:41:01.586Z,101458.13
2022-11-02T13:43:48.324Z,101447.47
2022-11-02T13:46:25.138Z,101452.81
2022-11-02T13:48:57.863Z,101451.03
2022-11-02T13:51:24.768Z,101450.09
2022-11-02T13:53:53.418Z,101450.88
2022-11-02T13:56:36.873Z,101450.97
2022-11-02T13:59:16.571Z,101445.69
2022-11-02T14:01:43.142Z,101441.31
2022-11-02T14:04:13.164Z,101445.03
2022-11-02T14:06:44.422Z,101442.56
2022-11-02T14:09:10.926Z,101443.47
2022-11-02T14:11:40.531Z,101437.91
2022-11-02T14:14:10.196Z,101436.94
2022-11-02T14:16:42.577Z,101426.88
2022-11-02T14:19:20.608Z,101428.53
2022-11-02T14:21:51.330Z,101433.03
2022-11-02T14:24:33.498Z,101429.56
2022-11-02T14:27:07.462Z,101420.50
2022-11-02T14:29:59.339Z,101430.25
2022-11-02T14:32:42.038Z,101426.91
2022-11-02T14:35:09.862Z,101426.66
2022-11-02T14:37:51.010Z,101423.00
2022-11-02T14:40:23.876Z,101420.31
2022-11-02T14:42:59.784Z,101416.72
2022-11-02T14:45:32.529Z,101414.84
2022-11-02T14:48:00.151Z,101423.91
2022-11-02T14:50:27.118Z,101416.16
2022-11-02T14:52:55.308Z,101411.41
2022-11-02T14:55:23.041Z,101411.56
2022-11-02T14:57:54.705Z,101410.75
2022-11-02T15:00:22.272Z,101406.47
2022-11-02T15:02:48.939Z,101406.34
2022-11-02T15:05:24.702Z,101401.91
2022-11-02T15:07:52.613Z,101397.47
2022-11-02T15:10:19.090Z,101400.00
2022-11-02T15:12:46.577Z,101406.16
2022-11-02T15:15:28.412Z,101405.22
2022-11-02T15:17:59.866Z,101392.72
2022-11-02T15:20:27.541Z,101390.09
2022-11-02T15:22:59.969Z,101384.63
2022-11-02T15:25:34.034Z,101380.16
2022-11-02T15:28:07.917Z,101380.06
2022-11-02T15:30:37.978Z,101374.66
2022-11-02T15:33:05.990Z,101381.72
2022-11-02T15:35:34.029Z,101382.69
2022-11-02T15:38:17.030Z,101387.06
2022-11-02T15:40:47.023Z,101380.69
2022-11-02T15:43:13.528Z,101379.78
2022-11-02T15:45:51.644Z,101377.22
2022-11-02T15:48:43.466Z,101383.19
2022-11-02T15:51:22.138Z,101383.28
2022-11-02T15:54:04.321Z,101378.75
2022-11-02T15:56:36.931Z,101387.50
2022-11-02T15:59:15.407Z,101386.00
2022-11-02T16:01:42.625Z,101375.25
2022-11-02T16:04:11.769Z,101380.66
2022-11-02T16:06:39.454Z,101374.94
2022-11-02T16:09:41.583Z,101383.72
2022-11-02T16:12:08.092Z,101376.63
2022-11-02T16:14:34.501Z,101373.97
2022-11-02T16:17:01.045Z,101367.13
2022-11-02T16:19:27.517Z,101362.59
2022-11-02T16:21:58.445Z,101360.72
2022-11-02T16:24:27.667Z,101367.59
2022-11-02T16:26:54.349Z,101363.91
2022-11-02T16:29:27.650Z,101362.09
2022-11-02T16:31:54.426Z,101364.06
2022-11-02T16:34:22.110Z,101359.66
2022-11-02T16:36:51.817Z,101364.00
2022-11-02T16:39:27.541Z,101370.28
2022-11-02T16:41:55.794Z,101364.97
2022-11-02T16:44:26.133Z,101364.84
2022-11-02T16:46:57.431Z,101361.34
2022-11-02T16:49:24.858Z,101366.66
2022-11-02T16:51:52.637Z,101374.63
2022-11-02T16:54:29.818Z,101369.63
2022-11-02T16:56:58.033Z,101369.78
2022-11-02T16:59:25.744Z,101366.34
2022-11-02T17:01:52.311Z,101365.84
2022-11-02T17:04:25.742Z,101369.50
2022-11-02T17:07:00.949Z,101363.28
2022-11-02T17:09:31.195Z,101363.88
2022-11-02T17:11:58.778Z,101363.88
2022-11-02T17:14:25.413Z,101358.78
2022-11-02T17:17:01.013Z,101351.72
2022-11-02T17:19:39.931Z,101361.13
2022-11-02T17:22:25.472Z,101364.91
2022-11-02T17:25:18.381Z,101358.81
2022-11-02T17:27:45.066Z,101358.28
2022-11-02T17:30:29.934Z,101360.16
2022-11-02T17:32:57.154Z,101354.69
2022-11-02T17:35:27.246Z,101360.94
2022-11-02T17:37:54.531Z,101364.50
2022-11-02T17:40:22.090Z,101362.06
2022-11-02T17:43:02.218Z,101366.50
2022-11-02T17:45:29.959Z,101368.28
2022-11-02T17:47:56.893Z,101371.81
2022-11-02T17:50:23.876Z,101364.78
2022-11-02T17:52:50.838Z,101369.16
2022-11-02T17:55:21.375Z,101363.63
2022-11-02T17:57:50.908Z,101358.53
2022-11-02T18:00:20.059Z,101357.53
2022-11-02T18:03:49.198Z,101360.09
2022-11-02T18:06:39.331Z,101351.22
2022-11-02T18:09:11.868Z,101353.00
2022-11-02T18:11:38.541Z,101351.19
2022-11-02T18:14:05.192Z,101344.97
2022-11-02T18:16:53.445Z,101340.81
2022-11-02T18:19:20.577Z,101332.53
2022-11-02T18:21:48.979Z,101339.88
2022-11-02T18:24:19.196Z,101337.94
2022-11-02T18:26:46.951Z,101339.88
2022-11-02T18:29:13.929Z,101326.56
2022-11-02T18:31:40.803Z,101336.06
2022-11-02T18:34:12.585Z,101322.91
2022-11-02T18:36:45.528Z,101333.72
2022-11-02T18:39:12.163Z,101332.13
2022-11-02T18:41:51.778Z,101333.00
2022-11-02T18:44:19.026Z,101334.66
2022-11-02T18:46:57.785Z,101329.28
2022-11-02T18:49:30.439Z,101330.63
2022-11-02T18:51:58.213Z,101327.31
2022-11-02T18:54:25.644Z,101317.81
2022-11-02T18:56:52.379Z,101329.88
2022-11-02T18:59:18.865Z,101322.84
2022-11-02T19:01:56.712Z,101324.63
2022-11-02T19:04:29.444Z,101328.06
2022-11-02T19:07:16.352Z,101323.53
2022-11-02T19:09:43.132Z,101317.41
2022-11-02T19:12:10.417Z,101315.59
2022-11-02T19:14:38.331Z,101316.63
2022-11-02T19:17:05.533Z,101306.91
2022-11-02T19:19:34.782Z,101310.63
2022-11-02T19:22:08.442Z,101305.97
2022-11-02T19:24:36.151Z,101306.97
2022-11-02T19:27:05.247Z,101298.16
2022-11-02T19:29:31.971Z,101294.38
2022-11-02T19:32:01.415Z,101293.38
2022-11-02T19:34:27.988Z,101288.00
2022-11-02T19:36:54.557Z,101281.88
2022-11-02T19:39:21.736Z,101276.78
2022-11-02T19:41:52.328Z,101276.72
2022-11-02T19:44:31.054Z,101263.22
2022-11-02T19:50:20.379Z,101257.50
2022-11-02T19:52:49.052Z,101256.66
2022-11-02T19:55:15.701Z,101250.19
2022-11-02T19:57:42.363Z,101255.72
2022-11-02T20:00:09.303Z,101250.84
2022-11-02T20:02:36.184Z,101247.72
2022-11-02T20:05:02.858Z,101238.72
2022-11-02T20:11:05.217Z,101240.16
2022-11-02T20:13:32.748Z,101225.97
2022-11-02T20:15:59.705Z,101224.03
2022-11-02T20:18:26.751Z,101220.47
2022-11-02T20:20:53.454Z,101220.53
2022-11-02T20:23:26.524Z,101224.16
2022-11-02T20:25:54.011Z,101222.19
2022-11-02T20:28:20.614Z,101209.53
2022-11-02T20:30:47.300Z,101213.28
2022-11-02T20:33:14.008Z,101216.53
2022-11-02T20:35:43.759Z,101213.78
2022-11-02T20:38:11.538Z,101210.00
2022-11-02T20:40:41.256Z,101198.38
2022-11-02T20:43:08.058Z,101204.66
2022-11-02T20:45:34.544Z,101204.41
2022-11-02T20:48:01.541Z,101196.72
2022-11-02T20:50:28.784Z,101192.13
2022-11-02T20:52:56.170Z,101186.03
2022-11-02T20:55:22.816Z,101189.53
2022-11-02T20:57:49.459Z,101181.63
2022-11-02T21:00:17.811Z,101181.41
2022-11-02T21:02:47.694Z,101176.97
2022-11-02T21:05:14.668Z,101180.78
2022-11-02T21:07:41.154Z,101174.31
2022-11-02T21:10:08.052Z,101172.44
2022-11-02T21:12:53.196Z,101169.81
2022-11-02T21:15:19.779Z,101167.19
2022-11-02T21:17:46.528Z,101174.13
2022-11-02T21:23:03.512Z,101167.19
2022-11-02T21:25:31.005Z,101164.53
2022-11-02T21:27:57.693Z,101153.84
2022-11-02T21:30:24.224Z,101157.41
2022-11-02T21:32:51.835Z,101152.72
2022-11-02T21:35:18.769Z,101143.97
2022-11-02T21:37:45.198Z,101151.81
2022-11-02T21:40:11.883Z,101148.69
2022-11-02T21:42:38.460Z,101149.63
2022-11-02T21:45:05.699Z,101141.63
2022-11-02T21:47:34.337Z,101143.22
2022-11-02T21:50:01.813Z,101144.06
2022-11-02T21:52:28.365Z,101143.13
2022-11-02T21:54:54.836Z,101148.44
2022-11-02T21:57:21.313Z,101140.41
2022-11-02T21:59:47.901Z,101138.59
2022-11-02T22:02:14.512Z,101132.50
2022-11-02T22:04:41.215Z,101143.16
2022-11-02T22:07:07.971Z,101131.66
2022-11-02T22:09:43.644Z,101133.97
2022-11-02T22:12:28.874Z,101127.72
2022-11-02T22:14:55.337Z,101119.81
2022-11-02T22:17:43.769Z,101118.03
2022-11-02T22:20:08.603Z,101110.28
2022-11-02T22:22:35.047Z,101110.94
2022-11-02T22:25:01.537Z,101102.91
2022-11-02T22:28:45.868Z,101103.16
2022-11-02T22:31:13.605Z,101093.31
2022-11-02T22:33:43.665Z,101097.66
2022-11-02T22:36:13.502Z,101089.84
2022-11-02T22:38:55.954Z,101077.72
2022-11-02T22:41:41.675Z,101075.84
2022-11-02T22:44:11.164Z,101073.84
2022-11-02T22:46:40.059Z,101062.66
2022-11-02T22:49:07.985Z,101069.16
2022-11-02T22:51:40.044Z,101066.19
2022-11-02T22:54:09.597Z,101066.50
2022-11-02T22:56:36.212Z,101064.78
2022-11-02T22:59:03.781Z,101060.47
2022-11-02T23:01:31.540Z,101062.69
2022-11-02T23:03:58.734Z,101053.09
2022-11-02T23:06:26.048Z,101050.13
2022-11-02T23:08:55.214Z,101039.34
2022-11-02T23:11:25.271Z,101036.66
2022-11-02T23:14:04.976Z,101033.94
2022-11-02T23:16:34.346Z,101034.66
2022-11-02T23:19:27.261Z,101021.59
2022-11-02T23:22:17.015Z,101018.44
2022-11-02T23:25:03.379Z,101007.59
2022-11-02T23:27:31.204Z,101013.00
2022-11-02T23:30:22.709Z,101010.69
2022-11-02T23:32:56.426Z,101010.59
2022-11-02T23:35:41.644Z,101014.91
2022-11-02T23:38:10.291Z,101002.22
2022-11-02T23:40:36.868Z,101002.09
2022-11-02T23:43:05.012Z,101004.63
2022-11-02T23:45:31.808Z,101005.31
2022-11-02T23:48:00.138Z,101007.19
2022-11-02T23:50:48.574Z,101011.31
2022-11-02T23:53:38.256Z,101006.13
2022-11-02T23:56:25.073Z,101002.38
2022-11-02T23:59:06.494Z,101000.59
